createdAt,value
2019-01-22T00:00:21.650Z,50.50
2019-01-22T00:02:50.702Z,50.60
2019-01-22T00:05:20.792Z,50.80
2019-01-22T00:07:49.465Z,51.60
2019-01-22T00:10:19.006Z,53.70
2019-01-22T00:12:48.745Z,55.40
2019-01-22T00:15:18.142Z,58.00
2019-01-22T00:17:48.314Z,60.00
2019-01-22T00:20:17.175Z,61.10
2019-01-22T00:22:45.995Z,62.80
2019-01-22T00:25:15.214Z,64.30
2019-01-22T00:27:43.976Z,65.40
2019-01-22T00:30:18.714Z,65.90
2019-01-22T00:32:47.946Z,66.30
2019-01-22T00:35:16.772Z,66.30
2019-01-22T00:37:47.356Z,66.90
2019-01-22T00:40:19.373Z,67.00
2019-01-22T00:42:49.192Z,68.10
2019-01-22T00:45:18.166Z,69.20
2019-01-22T00:47:47.382Z,70.00
2019-01-22T00:50:18.119Z,70.90
2019-01-22T00:52:47.437Z,71.30
2019-01-22T00:55:19.124Z,72.00
2019-01-22T00:57:48.367Z,72.70
2019-01-22T01:00:28.849Z,73.20
2019-01-22T01:02:57.607Z,72.10
2019-01-22T01:05:26.862Z,71.70
2019-01-22T01:07:55.738Z,71.40
2019-01-22T01:10:24.607Z,71.60
2019-01-22T01:12:53.226Z,70.50
2019-01-22T01:15:22.110Z,70.80
2019-01-22T01:17:50.738Z,70.70
2019-01-22T01:20:21.187Z,71.10
2019-01-22T01:22:49.867Z,70.70
2019-01-22T01:25:20.518Z,70.90
2019-01-22T01:27:49.544Z,70.80
2019-01-22T01:30:22.873Z,72.40
2019-01-22T01:32:52.584Z,72.40
2019-01-22T01:35:22.068Z,74.00
2019-01-22T01:37:51.188Z,74.40
2019-01-22T01:40:20.377Z,73.30
2019-01-22T01:42:49.535Z,72.10
2019-01-22T01:45:18.594Z,72.40
2019-01-22T01:47:47.607Z,73.30
2019-01-22T01:50:17.548Z,74.60
2019-01-22T01:52:46.439Z,75.30
2019-01-22T01:55:17.285Z,75.40
2019-01-22T01:57:46.171Z,75.50
2019-01-22T02:00:19.682Z,77.20
2019-01-22T02:02:49.428Z,78.80
2019-01-22T02:05:19.508Z,79.70
2019-01-22T02:07:48.510Z,80.80
2019-01-22T02:10:19.465Z,81.00
2019-01-22T02:13:00.627Z,81.60
2019-01-22T02:15:32.731Z,82.40
2019-01-22T02:18:27.954Z,82.20
2019-01-22T02:21:03.203Z,82.50
2019-01-22T02:23:50.643Z,82.70
2019-01-22T02:26:41.125Z,83.10
2019-01-22T02:29:21.839Z,83.30
2019-01-22T02:32:16.789Z,83.40
2019-01-22T02:34:54.612Z,83.70
2019-01-22T02:37:50.544Z,83.20
2019-01-22T02:40:28.293Z,84.00
2019-01-22T02:43:14.817Z,84.80
2019-01-22T02:46:07.772Z,84.90
2019-01-22T02:48:43.942Z,84.70
2019-01-22T02:51:24.555Z,84.80
2019-01-22T02:53:59.445Z,84.50
2019-01-22T02:56:55.217Z,85.50
2019-01-22T02:59:39.343Z,86.30
2019-01-22T03:02:32.849Z,86.90
2019-01-22T03:05:17.037Z,86.60
2019-01-22T03:08:01.081Z,87.00
2019-01-22T03:10:34.637Z,87.60
2019-01-22T03:13:13.201Z,87.60
2019-01-22T03:16:07.691Z,88.50
2019-01-22T03:18:51.327Z,89.50
2019-01-22T03:21:25.973Z,89.10
2019-01-22T03:24:27.986Z,89.00
2019-01-22T03:27:14.568Z,89.50
2019-01-22T03:30:02.845Z,89.10
2019-01-22T03:32:43.680Z,88.90
2019-01-22T03:35:27.299Z,88.60
2019-01-22T03:38:01.976Z,89.00
2019-01-22T03:40:34.047Z,88.20
2019-01-22T03:43:10.497Z,88.60
2019-01-22T03:45:45.308Z,89.00
2019-01-22T03:48:34.308Z,89.30
2019-01-22T03:51:09.085Z,89.60
2019-01-22T03:53:44.758Z,90.10
2019-01-22T03:56:34.779Z,89.70
2019-01-22T03:59:03.402Z,89.70
2019-01-22T04:01:32.142Z,89.60
2019-01-22T04:04:01.091Z,89.30
2019-01-22T04:06:29.677Z,88.00
2019-01-22T04:09:01.234Z,87.40
2019-01-22T04:11:30.900Z,86.40
2019-01-22T04:13:59.538Z,85.50
2019-01-22T04:16:29.296Z,85.40
2019-01-22T04:18:58.588Z,85.40
2019-01-22T04:21:30.652Z,85.40
2019-01-22T04:24:08.918Z,84.80
2019-01-22T04:26:41.207Z,85.60
2019-01-22T04:29:17.385Z,85.20
2019-01-22T04:31:55.865Z,85.90
2019-01-22T04:34:31.304Z,86.60
2019-01-22T04:37:06.410Z,86.50
2019-01-22T04:39:50.050Z,86.60
2019-01-22T04:42:36.566Z,86.80
2019-01-22T04:45:08.341Z,87.30
2019-01-22T04:47:45.874Z,87.40
2019-01-22T04:50:28.143Z,87.30
2019-01-22T04:53:02.557Z,87.60
2019-01-22T04:55:43.115Z,87.40
2019-01-22T04:58:14.890Z,87.90
2019-01-22T05:00:49.628Z,87.80
2019-01-22T05:03:25.061Z,87.80
2019-01-22T05:05:59.984Z,87.90
2019-01-22T05:08:47.507Z,88.50
2019-01-22T05:11:22.314Z,88.20
2019-01-22T05:13:57.348Z,88.50
2019-01-22T05:16:32.123Z,88.20
2019-01-22T05:19:04.154Z,88.10
2019-01-22T05:21:42.281Z,88.50
2019-01-22T05:24:35.401Z,88.40
2019-01-22T05:27:16.687Z,88.40
2019-01-22T05:30:00.383Z,88.60
2019-01-22T05:32:53.722Z,88.90
2019-01-22T05:35:44.876Z,88.70
2019-01-22T05:38:25.752Z,89.20
2019-01-22T05:41:07.164Z,89.50
2019-01-22T05:43:44.982Z,89.30
2019-01-22T05:46:37.911Z,89.50
2019-01-22T05:49:16.329Z,89.90
2019-01-22T05:51:51.279Z,89.50
2019-01-22T05:54:41.305Z,89.50
2019-01-22T05:57:13.062Z,89.90
2019-01-22T06:00:15.623Z,89.40
2019-01-22T06:02:48.071Z,88.80
2019-01-22T06:05:32.504Z,88.70
2019-01-22T06:08:07.540Z,88.60
2019-01-22T06:10:57.540Z,89.30
2019-01-22T06:13:44.271Z,89.70
2019-01-22T06:16:23.296Z,89.70
2019-01-22T06:18:58.420Z,89.80
2019-01-22T06:21:51.493Z,89.60
2019-01-22T06:24:44.198Z,90.00
2019-01-22T06:27:16.078Z,89.80
2019-01-22T06:29:54.393Z,89.60
2019-01-22T06:32:35.367Z,89.60
2019-01-22T06:35:27.477Z,90.10
2019-01-22T06:38:11.591Z,90.00
2019-01-22T06:41:02.144Z,90.10
2019-01-22T06:43:37.590Z,90.00
2019-01-22T06:46:12.911Z,89.80
2019-01-22T06:48:50.924Z,90.10
2019-01-22T06:51:27.219Z,89.90
2019-01-22T06:54:03.266Z,89.10
2019-01-22T06:56:41.575Z,89.10
2019-01-22T06:59:31.562Z,88.60
2019-01-22T07:02:06.470Z,88.60
2019-01-22T07:04:56.471Z,87.60
2019-01-22T07:07:31.146Z,86.90
2019-01-22T07:10:13.057Z,87.20
2019-01-22T07:13:00.791Z,87.60
2019-01-22T07:15:55.545Z,87.50
2019-01-22T07:18:30.065Z,87.30
2019-01-22T07:21:36.163Z,86.80
2019-01-22T07:24:14.685Z,86.60
2019-01-22T07:26:47.067Z,86.60
2019-01-22T07:29:25.320Z,86.90
2019-01-22T07:32:04.926Z,86.80
2019-01-22T07:34:40.168Z,87.30
2019-01-22T07:37:30.782Z,87.10
2019-01-22T07:40:02.870Z,87.10
2019-01-22T07:42:56.368Z,87.10
2019-01-22T07:45:46.029Z,87.30
2019-01-22T07:48:17.897Z,88.00
2019-01-22T07:50:58.875Z,87.90
2019-01-22T07:53:37.640Z,87.80
2019-01-22T07:56:28.115Z,87.90
2019-01-22T07:59:15.217Z,88.40
2019-01-22T08:02:06.271Z,88.30
2019-01-22T08:05:16.272Z,88.40
2019-01-22T08:08:13.852Z,88.60
2019-01-22T08:11:08.859Z,88.80
2019-01-22T08:13:44.417Z,88.60
2019-01-22T08:16:43.686Z,88.60
2019-01-22T08:19:21.912Z,88.90
2019-01-22T08:22:27.885Z,88.30
2019-01-22T08:25:00.792Z,88.40
2019-01-22T08:27:35.712Z,88.60
2019-01-22T08:30:14.090Z,88.70
2019-01-22T08:33:00.952Z,88.70
2019-01-22T08:35:39.008Z,88.50
2019-01-22T08:38:19.585Z,88.70
2019-01-22T08:41:03.587Z,88.30
2019-01-22T08:43:47.398Z,88.30
2019-01-22T08:46:19.399Z,88.00
2019-01-22T08:49:03.785Z,87.90
2019-01-22T08:51:48.441Z,88.30
2019-01-22T08:54:26.282Z,88.40
2019-01-22T08:57:19.607Z,88.40
2019-01-22T08:59:57.587Z,88.60
2019-01-22T09:02:45.784Z,88.60
2019-01-22T09:05:27.826Z,88.60
2019-01-22T09:08:03.494Z,88.20
2019-01-22T09:10:51.335Z,88.50
2019-01-22T09:13:35.170Z,88.90
2019-01-22T09:16:13.270Z,89.20
2019-01-22T09:19:03.039Z,89.30
2019-01-22T09:21:46.934Z,88.20
2019-01-22T09:24:33.642Z,87.70
2019-01-22T09:27:23.776Z,88.00
2019-01-22T09:30:12.647Z,87.20
2019-01-22T09:32:51.175Z,86.90
2019-01-22T09:35:32.475Z,87.40
2019-01-22T09:38:02.248Z,87.90
2019-01-22T09:40:31.354Z,88.10
2019-01-22T09:43:00.804Z,88.70
2019-01-22T09:45:30.870Z,89.10
2019-01-22T09:47:59.989Z,88.90
2019-01-22T09:50:29.348Z,89.20
2019-01-22T09:52:58.624Z,89.70
2019-01-22T09:55:30.351Z,89.90
2019-01-22T09:57:59.094Z,90.20
2019-01-22T10:00:30.242Z,90.30
2019-01-22T10:02:59.497Z,90.60
2019-01-22T10:05:29.002Z,90.50
2019-01-22T10:07:58.591Z,90.60
2019-01-22T10:10:27.671Z,90.20
2019-01-22T10:12:57.054Z,90.50
2019-01-22T10:15:26.420Z,90.40
2019-01-22T10:17:55.531Z,90.30
2019-01-22T10:20:25.058Z,90.20
2019-01-22T10:22:54.539Z,90.30
2019-01-22T10:25:29.452Z,90.50
2019-01-22T10:27:54.804Z,90.70
2019-01-22T10:30:25.341Z,90.30
2019-01-22T10:32:54.596Z,90.30
2019-01-22T10:35:23.850Z,90.40
2019-01-22T10:37:53.278Z,90.50
2019-01-22T10:40:24.270Z,90.40
2019-01-22T10:42:53.031Z,90.50
2019-01-22T10:45:22.802Z,90.60
2019-01-22T10:47:51.536Z,90.40
2019-01-22T10:50:23.492Z,90.40
2019-01-22T10:52:52.662Z,90.30
2019-01-22T10:55:22.132Z,90.20
2019-01-22T10:57:52.405Z,90.10
2019-01-22T11:00:29.604Z,89.70
2019-01-22T11:02:59.080Z,90.00
2019-01-22T11:05:34.090Z,89.90
2019-01-22T11:08:03.271Z,89.80
2019-01-22T11:10:32.348Z,90.00
2019-01-22T11:13:01.692Z,90.10
2019-01-22T11:15:30.874Z,90.00
2019-01-22T11:18:00.353Z,90.00
2019-01-22T11:20:30.575Z,90.10
2019-01-22T11:23:00.362Z,90.30
2019-01-22T11:25:31.271Z,90.40
2019-01-22T11:28:00.346Z,90.40
2019-01-22T11:30:30.302Z,90.70
2019-01-22T11:32:59.891Z,90.40
2019-01-22T11:35:29.060Z,90.30
2019-01-22T11:37:58.930Z,90.20
2019-01-22T11:40:30.343Z,90.10
2019-01-22T11:42:59.535Z,90.20
2019-01-22T11:45:28.810Z,89.90
2019-01-22T11:47:59.033Z,89.60
2019-01-22T11:50:28.245Z,89.40
2019-01-22T11:52:57.915Z,88.90
2019-01-22T11:55:26.886Z,87.90
2019-01-22T11:57:55.923Z,87.10
2019-01-22T12:00:32.103Z,85.50
2019-01-22T12:03:01.405Z,84.90
2019-01-22T12:05:30.455Z,85.40
2019-01-22T12:08:00.589Z,85.60
2019-01-22T12:10:29.440Z,86.00
2019-01-22T12:12:58.483Z,86.20
2019-01-22T12:15:27.121Z,86.70
2019-01-22T12:17:55.868Z,86.50
2019-01-22T12:20:36.411Z,87.00
2019-01-22T12:23:05.748Z,88.00
2019-01-22T12:25:35.005Z,87.90
2019-01-22T12:28:04.322Z,88.30
2019-01-22T12:30:35.720Z,88.40
2019-01-22T12:33:05.441Z,89.10
2019-01-22T12:35:34.961Z,89.40
2019-01-22T12:38:04.378Z,89.70
2019-01-22T12:40:34.365Z,89.30
2019-01-22T12:43:04.038Z,89.10
2019-01-22T12:45:35.519Z,88.80
2019-01-22T12:48:05.238Z,88.60
2019-01-22T12:50:34.427Z,88.10
2019-01-22T12:53:03.898Z,88.00
2019-01-22T12:55:33.512Z,88.40
2019-01-22T12:58:02.130Z,88.50
2019-01-22T13:00:33.879Z,88.50
2019-01-22T13:03:02.533Z,88.40
2019-01-22T13:05:46.582Z,88.40
2019-01-22T13:08:15.821Z,88.40
2019-01-22T13:10:45.854Z,88.40
2019-01-22T13:13:14.860Z,88.50
2019-01-22T13:15:44.010Z,87.70
2019-01-22T13:18:13.122Z,87.90
2019-01-22T13:20:42.737Z,88.30
2019-01-22T13:23:12.085Z,88.50
2019-01-22T13:25:41.334Z,89.10
2019-01-22T13:28:10.863Z,88.80
2019-01-22T13:30:40.942Z,88.70
2019-01-22T13:33:10.662Z,89.00
2019-01-22T13:35:39.763Z,89.40
2019-01-22T13:38:08.957Z,89.50
2019-01-22T13:40:37.697Z,89.80
2019-01-22T13:43:06.837Z,89.20
2019-01-22T13:45:37.560Z,89.00
2019-01-22T13:48:09.499Z,88.30
2019-01-22T13:50:38.730Z,87.80
2019-01-22T13:53:08.906Z,87.30
2019-01-22T13:55:39.276Z,85.90
2019-01-22T13:58:08.812Z,85.70
2019-01-22T14:00:37.923Z,86.30
2019-01-22T14:03:07.724Z,86.20
2019-01-22T14:05:37.871Z,85.50
2019-01-22T14:08:07.302Z,84.40
2019-01-22T14:10:36.823Z,84.10
2019-01-22T14:13:06.080Z,84.20
2019-01-22T14:15:37.519Z,84.10
2019-01-22T14:18:07.084Z,84.10
2019-01-22T14:20:36.560Z,83.90
2019-01-22T14:23:05.109Z,84.50
2019-01-22T14:25:33.759Z,84.40
2019-01-22T14:28:02.291Z,84.40
2019-01-22T14:30:32.964Z,84.30
2019-01-22T14:33:02.325Z,84.30
2019-01-22T14:35:31.301Z,84.40
2019-01-22T14:38:00.664Z,83.50
2019-01-22T14:40:29.977Z,83.20
2019-01-22T14:42:59.519Z,82.00
2019-01-22T14:45:28.906Z,80.80
2019-01-22T14:47:57.945Z,80.20
2019-01-22T14:50:29.257Z,79.70
2019-01-22T14:52:58.626Z,78.60
2019-01-22T14:55:27.934Z,77.20
2019-01-22T14:57:57.092Z,76.20
2019-01-22T15:00:29.631Z,74.90
2019-01-22T15:02:59.646Z,74.40
2019-01-22T15:05:28.727Z,74.10
2019-01-22T15:07:58.870Z,73.30
2019-01-22T15:10:27.945Z,73.00
2019-01-22T15:12:58.588Z,73.20
2019-01-22T15:15:27.399Z,74.10
2019-01-22T15:17:56.653Z,75.50
2019-01-22T15:20:26.875Z,75.80
2019-01-22T15:22:56.281Z,75.10
2019-01-22T15:25:25.848Z,75.90
2019-01-22T15:27:55.070Z,77.50
2019-01-22T15:30:26.244Z,78.20
2019-01-22T15:32:56.225Z,78.20
2019-01-22T15:35:25.471Z,78.60
2019-01-22T15:37:54.477Z,79.10
2019-01-22T15:40:26.108Z,79.90
2019-01-22T15:42:55.330Z,80.90
2019-01-22T15:45:25.044Z,81.30
2019-01-22T15:47:54.360Z,80.60
2019-01-22T15:50:24.208Z,80.40
2019-01-22T15:52:53.135Z,79.60
2019-01-22T15:55:24.490Z,77.00
2019-01-22T15:57:53.669Z,75.70
2019-01-22T16:00:26.904Z,76.90
2019-01-22T16:02:55.710Z,77.70
2019-01-22T16:05:24.738Z,75.60
2019-01-22T16:07:54.083Z,75.80
2019-01-22T16:10:23.543Z,78.40
2019-01-22T16:12:52.861Z,78.70
2019-01-22T16:15:23.295Z,78.80
2019-01-22T16:17:53.174Z,78.70
2019-01-22T16:20:24.700Z,77.60
2019-01-22T16:22:54.024Z,76.30
2019-01-22T16:25:23.294Z,77.10
2019-01-22T16:27:52.417Z,77.30
2019-01-22T16:30:24.159Z,75.70
2019-01-22T16:32:53.272Z,74.80
2019-01-22T16:35:23.413Z,70.30
2019-01-22T16:37:52.630Z,68.20
2019-01-22T16:40:21.910Z,67.60
2019-01-22T16:42:51.295Z,64.50
2019-01-22T16:45:28.034Z,63.10
2019-01-22T16:47:57.419Z,64.60
2019-01-22T16:50:27.479Z,65.40
2019-01-22T16:52:56.799Z,68.60
2019-01-22T16:55:31.334Z,70.40
2019-01-22T16:58:00.710Z,71.20
2019-01-22T17:00:31.518Z,72.60
2019-01-22T17:03:01.076Z,72.60
2019-01-22T17:05:30.204Z,72.00
2019-01-22T17:07:59.556Z,71.90
2019-01-22T17:10:28.865Z,71.50
2019-01-22T17:12:59.191Z,68.50
2019-01-22T17:15:28.486Z,61.70
2019-01-22T17:17:57.913Z,61.90
2019-01-22T17:20:35.072Z,60.80
2019-01-22T17:23:04.645Z,58.80
2019-01-22T17:25:33.493Z,57.00
2019-01-22T17:28:02.943Z,54.80
2019-01-22T17:30:32.067Z,55.30
2019-01-22T17:33:05.296Z,57.30
2019-01-22T17:35:35.752Z,60.30
2019-01-22T17:38:05.094Z,62.70
2019-01-22T17:40:34.605Z,62.30
2019-01-22T17:43:03.732Z,63.40
2019-01-22T17:45:32.845Z,64.10
2019-01-22T17:48:02.250Z,63.40
2019-01-22T17:50:31.688Z,62.70
2019-01-22T17:53:07.339Z,60.80
2019-01-22T17:55:32.730Z,61.80
2019-01-22T17:58:02.824Z,63.80
2019-01-22T18:00:33.855Z,63.60
2019-01-22T18:03:02.980Z,64.60
2019-01-22T18:05:32.553Z,62.90
2019-01-22T18:08:01.999Z,56.70
2019-01-22T18:10:30.743Z,51.50
2019-01-22T18:13:00.290Z,51.90
2019-01-22T18:15:30.578Z,51.20
2019-01-22T18:17:59.599Z,52.40
2019-01-22T18:20:29.223Z,52.90
2019-01-22T18:22:58.629Z,52.10
2019-01-22T18:25:27.790Z,54.60
2019-01-22T18:27:57.102Z,50.10
2019-01-22T18:30:26.903Z,53.50
2019-01-22T18:32:55.996Z,56.00
2019-01-22T18:35:38.147Z,60.00
2019-01-22T18:38:07.919Z,58.40
2019-01-22T18:40:37.591Z,58.00
2019-01-22T18:43:07.051Z,60.50
2019-01-22T18:45:36.546Z,62.30
2019-01-22T18:48:06.222Z,64.30
2019-01-22T18:50:35.892Z,67.90
2019-01-22T18:53:05.663Z,68.40
2019-01-22T18:55:34.950Z,70.90
2019-01-22T18:58:04.298Z,73.80
2019-01-22T19:00:33.534Z,73.70
2019-01-22T19:03:02.762Z,76.00
2019-01-22T19:05:31.939Z,74.30
2019-01-22T19:08:01.370Z,72.70
2019-01-22T19:10:30.673Z,74.00
2019-01-22T19:13:00.427Z,73.40
2019-01-22T19:15:29.664Z,75.40
2019-01-22T19:17:59.358Z,74.50
2019-01-22T19:20:28.872Z,71.90
2019-01-22T19:22:57.958Z,71.70
2019-01-22T19:25:30.434Z,71.90
2019-01-22T19:27:59.653Z,72.30
2019-01-22T19:30:30.461Z,71.80
2019-01-22T19:32:59.232Z,72.20
2019-01-22T19:35:28.033Z,73.40
2019-01-22T19:37:57.484Z,74.10
2019-01-22T19:40:26.384Z,74.00
2019-01-22T19:42:55.054Z,74.20
2019-01-22T19:45:26.841Z,75.10
2019-01-22T19:47:56.220Z,77.70
2019-01-22T19:50:25.783Z,79.30
2019-01-22T19:52:54.996Z,80.60
2019-01-22T19:55:24.525Z,79.00
2019-01-22T19:57:53.778Z,77.20
2019-01-22T20:00:25.181Z,78.10
2019-01-22T20:02:54.578Z,80.20
2019-01-22T20:05:24.123Z,82.00
2019-01-22T20:07:53.335Z,81.30
2019-01-22T20:10:22.661Z,79.90
2019-01-22T20:12:51.924Z,80.20
2019-01-22T20:15:22.885Z,81.00
2019-01-22T20:17:52.310Z,81.20
2019-01-22T20:20:22.088Z,81.30
2019-01-22T20:22:51.471Z,81.30
2019-01-22T20:25:20.545Z,81.30
2019-01-22T20:27:49.887Z,82.30
2019-01-22T20:30:25.566Z,81.50
2019-01-22T20:32:54.704Z,81.80
2019-01-22T20:35:25.089Z,83.20
2019-01-22T20:37:54.725Z,82.30
2019-01-22T20:40:24.168Z,80.80
2019-01-22T20:42:53.685Z,79.40
2019-01-22T20:45:24.999Z,79.10
2019-01-22T20:47:54.426Z,78.60
2019-01-22T20:50:25.112Z,79.20
2019-01-22T20:52:54.499Z,79.70
2019-01-22T20:55:24.247Z,80.50
2019-01-22T20:57:55.023Z,78.20
2019-01-22T21:00:26.036Z,79.00
2019-01-22T21:02:56.337Z,78.30
2019-01-22T21:05:29.667Z,78.40
2019-01-22T21:07:58.823Z,77.90
2019-01-22T21:10:32.230Z,79.20
2019-01-22T21:13:01.576Z,76.20
2019-01-22T21:15:30.848Z,77.00
2019-01-22T21:18:00.353Z,77.80
2019-01-22T21:20:30.568Z,78.20
2019-01-22T21:23:00.044Z,77.70
2019-01-22T21:25:29.081Z,77.60
2019-01-22T21:28:01.941Z,77.20
2019-01-22T21:30:34.216Z,77.60
2019-01-22T21:33:03.633Z,77.90
2019-01-22T21:35:32.669Z,77.00
2019-01-22T21:38:02.785Z,78.10
2019-01-22T21:40:31.719Z,79.00
2019-01-22T21:43:01.161Z,79.00
2019-01-22T21:45:31.292Z,78.90
2019-01-22T21:48:00.099Z,80.30
2019-01-22T21:50:28.843Z,80.40
2019-01-22T21:52:57.500Z,81.10
2019-01-22T21:55:26.193Z,81.10
2019-01-22T21:57:55.711Z,81.90
2019-01-22T22:00:28.290Z,82.30
2019-01-22T22:02:57.839Z,82.50
2019-01-22T22:05:28.911Z,82.20
2019-01-22T22:07:58.420Z,82.40
2019-01-22T22:10:28.842Z,83.30
2019-01-22T22:12:58.041Z,83.00
2019-01-22T22:15:27.640Z,83.00
2019-01-22T22:17:56.964Z,82.40
2019-01-22T22:20:26.258Z,83.00
2019-01-22T22:22:55.594Z,83.90
2019-01-22T22:25:25.139Z,83.10
2019-01-22T22:27:54.349Z,83.20
2019-01-22T22:30:31.596Z,83.40
2019-01-22T22:33:00.856Z,84.60
2019-01-22T22:35:29.995Z,85.30
2019-01-22T22:37:59.341Z,86.00
2019-01-22T22:40:28.128Z,86.80
2019-01-22T22:42:57.689Z,87.70
2019-01-22T22:45:27.803Z,87.40
2019-01-22T22:47:57.454Z,88.20
2019-01-22T22:50:32.946Z,88.50
2019-01-22T22:53:02.068Z,88.90
2019-01-22T22:55:31.157Z,88.60
2019-01-22T22:58:00.619Z,89.10
2019-01-22T23:00:36.670Z,89.20
2019-01-22T23:03:06.648Z,89.20
2019-01-22T23:05:36.406Z,89.90
2019-01-22T23:08:05.750Z,90.10
2019-01-22T23:10:35.595Z,90.00
2019-01-22T23:13:05.025Z,89.60
2019-01-22T23:15:33.777Z,89.60
2019-01-22T23:18:02.527Z,90.00
2019-01-22T23:20:32.311Z,90.20
2019-01-22T23:23:01.564Z,90.10
2019-01-22T23:25:31.232Z,90.20
2019-01-22T23:28:00.708Z,90.10
2019-01-22T23:30:29.715Z,90.20
2019-01-22T23:32:58.996Z,90.00
2019-01-22T23:35:28.246Z,89.00
2019-01-22T23:37:57.361Z,89.20
2019-01-22T23:40:26.459Z,88.30
2019-01-22T23:42:55.542Z,88.30
2019-01-22T23:45:24.650Z,88.00
2019-01-22T23:47:54.016Z,87.50
2019-01-22T23:50:23.244Z,88.00
2019-01-22T23:52:52.572Z,87.50
2019-01-22T23:55:21.927Z,88.40
2019-01-22T23:57:50.547Z,89.20
